createdAt,value
2024-02-03T00:01:13.029Z,77.50
2024-02-03T00:03:35.911Z,77.35
2024-02-03T00:05:58.732Z,77.26
2024-02-03T00:08:21.511Z,77.22
2024-02-03T00:10:44.269Z,76.78
2024-02-03T00:13:07.071Z,76.49
2024-02-03T00:15:29.976Z,76.74
2024-02-03T00:17:53.072Z,76.67
2024-02-03T00:20:15.976Z,76.88
2024-02-03T00:22:38.950Z,76.93
2024-02-03T00:25:02.146Z,77.10
2024-02-03T00:27:24.942Z,77.34
2024-02-03T00:29:47.754Z,77.35
2024-02-03T00:32:10.595Z,77.25
2024-02-03T00:34:33.483Z,77.14
2024-02-03T00:36:56.333Z,76.91
2024-02-03T00:39:19.061Z,76.88
2024-02-03T00:41:42.085Z,76.74
2024-02-03T00:44:05.144Z,76.49
2024-02-03T00:46:27.803Z,76.28
2024-02-03T00:48:50.821Z,76.18
2024-02-03T00:51:13.823Z,76.18
2024-02-03T00:53:37.688Z,76.30
2024-02-03T00:56:01.781Z,76.33
2024-02-03T00:58:24.542Z,76.07
2024-02-03T01:00:47.302Z,76.03
2024-02-03T01:03:10.444Z,76.13
2024-02-03T01:05:33.371Z,76.32
2024-02-03T01:07:57.063Z,76.15
2024-02-03T01:10:20.021Z,76.08
2024-02-03T01:12:45.674Z,75.86
2024-02-03T01:15:08.756Z,75.85
2024-02-03T01:17:31.651Z,75.69
2024-02-03T01:19:55.313Z,75.71
2024-02-03T01:22:18.000Z,75.22
2024-02-03T01:24:40.740Z,75.11
2024-02-03T01:27:04.434Z,75.03
2024-02-03T01:29:29.449Z,75.07
2024-02-03T01:31:52.541Z,75.25
2024-02-03T01:34:15.500Z,74.85
2024-02-03T01:36:38.308Z,75.33
2024-02-03T01:39:01.069Z,75.34
2024-02-03T01:41:23.868Z,75.30
2024-02-03T01:43:47.342Z,75.48
2024-02-03T01:46:10.791Z,75.44
2024-02-03T01:48:34.590Z,75.35
2024-02-03T01:50:57.870Z,75.23
2024-02-03T01:53:21.487Z,75.22
2024-02-03T01:55:44.623Z,75.01
2024-02-03T01:58:07.260Z,75.21
2024-02-03T02:00:31.896Z,75.37
2024-02-03T02:02:57.591Z,75.41
2024-02-03T02:05:20.276Z,75.35
2024-02-03T02:07:46.281Z,75.54
2024-02-03T02:10:09.294Z,75.59
2024-02-03T02:12:36.631Z,75.63
2024-02-03T02:14:59.476Z,75.38
2024-02-03T02:17:22.357Z,75.46
2024-02-03T02:19:45.328Z,75.45
2024-02-03T02:22:08.138Z,75.49
2024-02-03T02:24:30.804Z,75.42
2024-02-03T02:26:53.502Z,75.21
2024-02-03T02:29:16.170Z,75.27
2024-02-03T02:31:38.987Z,74.96
2024-02-03T02:34:02.036Z,74.89
2024-02-03T02:36:25.768Z,74.78
2024-02-03T02:38:48.938Z,74.55
2024-02-03T02:41:11.806Z,74.52
2024-02-03T02:43:34.655Z,74.48
2024-02-03T02:45:57.747Z,74.64
2024-02-03T02:48:21.111Z,74.70
2024-02-03T02:50:44.274Z,74.70
2024-02-03T02:53:08.351Z,74.97
2024-02-03T02:55:31.244Z,75.33
2024-02-03T02:57:54.003Z,75.59
2024-02-03T03:00:17.443Z,75.61
2024-02-03T03:02:40.281Z,75.64
2024-02-03T03:05:03.050Z,75.57
2024-02-03T03:07:25.849Z,75.59
2024-02-03T03:09:48.556Z,75.66
2024-02-03T03:12:12.237Z,75.80
2024-02-03T03:14:35.525Z,75.95
2024-02-03T03:16:58.205Z,75.91
2024-02-03T03:19:21.240Z,75.40
2024-02-03T03:21:44.146Z,75.36
2024-02-03T03:24:06.925Z,75.19
2024-02-03T03:26:29.785Z,75.37
2024-02-03T03:28:52.626Z,75.15
2024-02-03T03:31:15.307Z,75.17
2024-02-03T03:33:38.114Z,74.93
2024-02-03T03:36:00.945Z,74.89
2024-02-03T03:38:24.904Z,74.89
2024-02-03T03:40:47.540Z,74.59
2024-02-03T03:43:10.195Z,74.21
2024-02-03T03:45:33.602Z,74.39
2024-02-03T03:47:56.476Z,74.38
2024-02-03T03:50:20.188Z,74.22
2024-02-03T03:52:42.856Z,74.28
2024-02-03T03:55:06.402Z,74.02
2024-02-03T03:57:29.345Z,74.05
2024-02-03T03:59:51.973Z,74.17
2024-02-03T04:02:15.856Z,73.96
2024-02-03T04:04:39.763Z,73.94
2024-02-03T04:07:02.641Z,74.17
2024-02-03T04:09:25.338Z,74.08
2024-02-03T04:11:49.997Z,74.30
2024-02-03T04:14:12.660Z,74.18
2024-02-03T04:16:35.413Z,74.08
2024-02-03T04:18:58.153Z,74.19
2024-02-03T04:21:20.823Z,73.87
2024-02-03T04:23:43.491Z,73.82
2024-02-03T04:26:06.272Z,73.39
2024-02-03T04:28:28.915Z,73.26
2024-02-03T04:30:51.796Z,73.18
2024-02-03T04:33:14.671Z,73.13
2024-02-03T04:35:37.445Z,72.73
2024-02-03T04:38:04.157Z,72.64
2024-02-03T04:40:27.098Z,72.69
2024-02-03T04:42:50.134Z,72.55
2024-02-03T04:45:13.103Z,72.52
2024-02-03T04:47:35.998Z,72.63
2024-02-03T04:49:58.769Z,72.77
2024-02-03T04:52:21.643Z,72.67
2024-02-03T04:54:44.390Z,72.57
2024-02-03T04:57:07.134Z,72.05
2024-02-03T04:59:29.718Z,71.91
2024-02-03T05:01:52.457Z,72.10
2024-02-03T05:04:15.128Z,71.96
2024-02-03T05:06:38.077Z,71.93
2024-02-03T05:09:01.926Z,71.70
2024-02-03T05:11:24.653Z,71.78
2024-02-03T05:13:47.381Z,71.80
2024-02-03T05:16:10.019Z,71.93
2024-02-03T05:18:32.843Z,72.05
2024-02-03T05:20:55.599Z,72.12
2024-02-03T05:23:18.578Z,72.04
2024-02-03T05:25:41.347Z,71.98
2024-02-03T05:28:04.232Z,72.07
2024-02-03T05:30:28.323Z,72.06
2024-02-03T05:32:51.015Z,71.90
2024-02-03T05:35:14.796Z,71.68
2024-02-03T05:37:37.585Z,71.72
2024-02-03T05:40:00.495Z,71.73
2024-02-03T05:42:24.324Z,71.53
2024-02-03T05:44:47.189Z,71.69
2024-02-03T05:47:09.803Z,71.80
2024-02-03T05:49:32.731Z,71.92
2024-02-03T05:51:55.533Z,72.09
2024-02-03T05:54:18.599Z,72.26
2024-02-03T05:56:41.762Z,72.41
2024-02-03T05:59:20.667Z,72.52
2024-02-03T06:01:47.587Z,72.65
2024-02-03T06:04:12.017Z,72.72
2024-02-03T06:06:35.299Z,72.76
2024-02-03T06:08:58.044Z,72.87
2024-02-03T06:11:20.793Z,73.22
2024-02-03T06:13:43.455Z,73.02
2024-02-03T06:16:06.251Z,73.21
2024-02-03T06:18:29.249Z,73.24
2024-02-03T06:20:52.144Z,73.08
2024-02-03T06:23:14.752Z,73.21
2024-02-03T06:25:37.755Z,73.32
2024-02-03T06:28:00.991Z,73.36
2024-02-03T06:30:23.999Z,73.20
2024-02-03T06:32:46.967Z,72.95
2024-02-03T06:35:09.821Z,73.14
2024-02-03T06:37:32.751Z,73.22
2024-02-03T06:39:55.489Z,73.54
2024-02-03T06:42:18.668Z,73.54
2024-02-03T06:44:41.644Z,73.38
2024-02-03T06:47:04.536Z,73.66
2024-02-03T06:49:27.536Z,73.92
2024-02-03T06:51:50.355Z,73.98
2024-02-03T06:54:13.733Z,73.92
2024-02-03T06:56:37.010Z,73.66
2024-02-03T06:58:59.586Z,72.83
2024-02-03T07:01:23.750Z,71.81
2024-02-03T07:03:46.660Z,70.96
2024-02-03T07:06:09.696Z,69.83
2024-02-03T07:08:32.832Z,68.74
2024-02-03T07:10:55.535Z,68.29
2024-02-03T07:13:18.181Z,68.03
2024-02-03T07:15:40.882Z,67.48
2024-02-03T07:18:03.825Z,67.35
2024-02-03T07:20:26.997Z,67.32
2024-02-03T07:22:49.677Z,67.29
2024-02-03T07:25:18.076Z,67.69
2024-02-03T07:27:40.825Z,68.29
2024-02-03T07:30:04.476Z,69.66
2024-02-03T07:32:28.164Z,70.21
2024-02-03T07:34:51.048Z,70.62
2024-02-03T07:37:14.467Z,70.89
2024-02-03T07:39:37.390Z,71.13
2024-02-03T07:42:00.171Z,71.12
2024-02-03T07:44:22.944Z,70.86
2024-02-03T07:46:45.611Z,70.78
2024-02-03T07:49:08.333Z,70.75
2024-02-03T07:51:31.203Z,70.94
2024-02-03T07:53:53.899Z,71.00
2024-02-03T07:56:16.556Z,71.38
2024-02-03T07:58:39.228Z,71.41
2024-02-03T08:01:02.002Z,71.52
2024-02-03T08:03:24.845Z,71.71
2024-02-03T08:05:47.807Z,71.72
2024-02-03T08:08:10.671Z,71.54
2024-02-03T08:10:33.409Z,71.56
2024-02-03T08:12:56.241Z,71.52
2024-02-03T08:15:19.458Z,71.50
2024-02-03T08:17:43.216Z,71.41
2024-02-03T08:20:10.089Z,71.29
2024-02-03T08:22:33.413Z,71.02
2024-02-03T08:24:56.534Z,70.81
2024-02-03T08:27:19.374Z,70.82
2024-02-03T08:29:42.101Z,70.96
2024-02-03T08:32:05.080Z,70.74
2024-02-03T08:34:28.057Z,70.68
2024-02-03T08:36:51.077Z,70.42
2024-02-03T08:39:46.639Z,70.00
2024-02-03T08:41:56.882Z,69.16
2024-02-03T08:44:19.631Z,69.21
2024-02-03T08:46:42.227Z,68.76
2024-02-03T08:49:04.991Z,68.60
2024-02-03T08:51:27.748Z,68.19
2024-02-03T08:53:50.616Z,68.00
2024-02-03T08:56:13.567Z,67.64
2024-02-03T08:58:36.325Z,66.65
2024-02-03T09:00:58.969Z,66.09
2024-02-03T09:03:21.960Z,65.48
2024-02-03T09:05:44.672Z,65.14
2024-02-03T09:08:07.331Z,64.97
2024-02-03T09:10:31.381Z,64.84
2024-02-03T09:12:54.298Z,65.02
2024-02-03T09:15:17.219Z,65.11
2024-02-03T09:17:39.979Z,65.13
2024-02-03T09:20:03.360Z,65.28
2024-02-03T09:22:26.362Z,64.72
2024-02-03T09:24:49.143Z,64.93
2024-02-03T09:27:12.037Z,64.84
2024-02-03T09:29:34.880Z,64.76
2024-02-03T09:31:59.045Z,64.71
2024-02-03T09:34:22.066Z,64.42
2024-02-03T09:39:10.156Z,64.95
2024-02-03T09:41:33.745Z,64.99
2024-02-03T09:43:57.049Z,64.70
2024-02-03T09:46:19.850Z,63.89
2024-02-03T09:48:43.107Z,64.03
2024-02-03T09:51:07.339Z,64.18
2024-02-03T09:53:31.348Z,63.96
2024-02-03T09:55:58.677Z,63.86
2024-02-03T09:58:21.383Z,63.47
2024-02-03T10:00:44.130Z,63.79
2024-02-03T10:03:16.939Z,64.15
2024-02-03T10:05:40.098Z,64.27
2024-02-03T10:08:04.839Z,64.14
2024-02-03T10:13:10.372Z,63.98
2024-02-03T10:15:33.112Z,64.84
2024-02-03T10:18:03.916Z,64.03
2024-02-03T10:20:28.429Z,64.01
2024-02-03T10:22:51.146Z,64.05
2024-02-03T10:25:15.089Z,64.04
2024-02-03T10:27:38.046Z,64.14
2024-02-03T10:30:00.850Z,63.47
2024-02-03T10:32:24.021Z,63.73
2024-02-03T10:34:47.583Z,63.97
2024-02-03T10:37:12.061Z,63.27
2024-02-03T10:39:35.210Z,63.71
2024-02-03T10:41:59.382Z,63.30
2024-02-03T10:44:25.849Z,63.30
2024-02-03T10:46:51.814Z,64.00
2024-02-03T10:49:18.314Z,64.03
2024-02-03T10:51:42.613Z,64.55
2024-02-03T10:54:14.022Z,64.79
2024-02-03T10:56:39.919Z,64.29
2024-02-03T10:59:06.976Z,64.46
2024-02-03T11:01:38.143Z,64.75
2024-02-03T11:04:01.927Z,64.34
2024-02-03T11:06:34.609Z,64.65
2024-02-03T11:09:12.938Z,64.87
2024-02-03T11:11:35.589Z,64.98
2024-02-03T11:13:58.500Z,64.60
2024-02-03T11:16:21.472Z,64.70
2024-02-03T11:18:44.325Z,64.80
2024-02-03T11:21:08.552Z,64.57
2024-02-03T11:23:31.603Z,64.81
2024-02-03T11:25:54.428Z,65.00
2024-02-03T11:28:17.685Z,64.55
2024-02-03T11:30:40.615Z,64.45
2024-02-03T11:33:03.896Z,64.45
2024-02-03T11:35:26.860Z,63.80
2024-02-03T11:37:49.584Z,63.40
2024-02-03T11:40:12.840Z,63.15
2024-02-03T11:42:37.481Z,63.21
2024-02-03T11:45:04.195Z,63.59
2024-02-03T11:47:28.399Z,63.58
2024-02-03T11:49:53.076Z,63.54
2024-02-03T11:52:15.957Z,62.96
2024-02-03T11:54:38.738Z,62.85
2024-02-03T11:57:01.748Z,63.41
2024-02-03T11:59:31.148Z,62.95
2024-02-03T12:01:54.281Z,62.58
2024-02-03T12:04:17.087Z,62.39
2024-02-03T12:06:39.813Z,63.14
2024-02-03T12:09:02.610Z,63.36
2024-02-03T12:11:25.283Z,62.77
2024-02-03T12:13:48.971Z,62.93
2024-02-03T12:16:12.192Z,62.31
2024-02-03T12:18:38.551Z,62.39
2024-02-03T12:21:01.778Z,62.88
2024-02-03T12:23:25.528Z,61.83
2024-02-03T12:25:50.040Z,62.10
2024-02-03T12:28:12.853Z,61.74
2024-02-03T12:30:38.912Z,61.67
2024-02-03T12:33:01.917Z,62.04
2024-02-03T12:35:24.627Z,61.78
2024-02-03T12:37:47.352Z,61.74
2024-02-03T12:40:13.119Z,61.64
2024-02-03T12:42:36.676Z,61.86
2024-02-03T12:45:02.827Z,61.85
2024-02-03T12:47:26.440Z,61.35
2024-02-03T12:49:49.183Z,61.68
2024-02-03T12:52:11.955Z,61.73
2024-02-03T12:54:34.878Z,61.88
2024-02-03T12:56:57.776Z,62.17
2024-02-03T12:59:20.382Z,62.31
2024-02-03T13:01:43.192Z,62.01
2024-02-03T13:04:06.183Z,62.06
2024-02-03T13:06:28.858Z,62.19
2024-02-03T13:08:51.730Z,61.75
2024-02-03T13:11:17.761Z,61.64
2024-02-03T13:13:41.635Z,62.21
2024-02-03T13:16:04.947Z,61.76
2024-02-03T13:18:28.076Z,61.97
2024-02-03T13:20:50.770Z,62.13
2024-02-03T13:23:13.551Z,62.63
2024-02-03T13:25:36.561Z,63.26
2024-02-03T13:27:59.354Z,63.62
2024-02-03T13:30:22.871Z,63.77
2024-02-03T13:32:46.422Z,63.97
2024-02-03T13:35:10.256Z,63.99
2024-02-03T13:37:35.985Z,64.45
2024-02-03T13:39:58.757Z,64.34
2024-02-03T13:42:22.000Z,64.07
2024-02-03T13:44:45.071Z,64.37
2024-02-03T13:47:07.795Z,64.37
2024-02-03T13:49:30.619Z,63.19
2024-02-03T13:51:53.493Z,63.33
2024-02-03T13:54:17.104Z,63.28
2024-02-03T13:56:42.873Z,62.94
2024-02-03T13:59:05.840Z,62.98
2024-02-03T14:01:30.028Z,63.25
2024-02-03T14:03:53.218Z,63.31
2024-02-03T14:06:16.857Z,63.69
2024-02-03T14:08:40.117Z,63.80
2024-02-03T14:11:03.355Z,63.86
2024-02-03T14:13:26.062Z,63.81
2024-02-03T14:15:48.800Z,64.39
2024-02-03T14:18:12.199Z,65.01
2024-02-03T14:20:36.644Z,65.23
2024-02-03T14:22:59.417Z,65.58
2024-02-03T14:25:22.210Z,65.89
2024-02-03T14:27:45.921Z,66.16
2024-02-03T14:30:09.604Z,66.59
2024-02-03T14:32:32.771Z,66.90
2024-02-03T14:34:55.794Z,67.01
2024-02-03T14:37:18.911Z,67.61
2024-02-03T14:39:41.701Z,67.46
2024-02-03T14:42:06.630Z,67.81
2024-02-03T14:44:33.694Z,67.60
2024-02-03T14:46:56.599Z,67.42
2024-02-03T14:49:20.717Z,67.55
2024-02-03T14:51:43.970Z,67.49
2024-02-03T14:54:07.051Z,67.74
2024-02-03T14:56:29.972Z,67.85
2024-02-03T14:58:52.688Z,68.01
2024-02-03T15:01:15.480Z,67.96
2024-02-03T15:03:38.424Z,67.67
2024-02-03T15:06:01.502Z,67.71
2024-02-03T15:08:24.478Z,67.59
2024-02-03T15:10:49.252Z,67.53
2024-02-03T15:13:11.996Z,67.66
2024-02-03T15:15:34.654Z,67.45
2024-02-03T15:17:57.859Z,67.68
2024-02-03T15:20:20.965Z,67.77
2024-02-03T15:22:43.739Z,67.63
2024-02-03T15:25:06.842Z,67.81
2024-02-03T15:27:29.715Z,67.58
2024-02-03T15:29:52.484Z,67.48
2024-02-03T15:32:15.371Z,67.58
2024-02-03T15:34:38.318Z,67.59
2024-02-03T15:37:03.079Z,67.68
2024-02-03T15:39:26.261Z,67.48
2024-02-03T15:41:49.064Z,67.53
2024-02-03T15:44:12.127Z,67.61
2024-02-03T15:46:43.712Z,67.71
2024-02-03T15:49:08.495Z,67.91
2024-02-03T15:51:31.301Z,67.76
2024-02-03T15:53:54.175Z,67.98
2024-02-03T15:56:16.995Z,68.07
2024-02-03T15:58:40.041Z,68.04
2024-02-03T16:01:03.108Z,67.94
2024-02-03T16:03:26.085Z,67.89
2024-02-03T16:05:49.077Z,68.07
2024-02-03T16:08:11.871Z,68.03
2024-02-03T16:10:34.646Z,68.51
2024-02-03T16:12:57.482Z,68.07
2024-02-03T16:15:20.550Z,68.28
2024-02-03T16:17:43.371Z,68.40
2024-02-03T16:20:11.662Z,68.39
2024-02-03T16:22:37.158Z,68.32
2024-02-03T16:24:59.904Z,68.32
2024-02-03T16:27:22.900Z,68.40
2024-02-03T16:29:45.950Z,68.52
2024-02-03T16:32:09.027Z,68.54
2024-02-03T16:34:32.005Z,68.42
2024-02-03T16:36:55.154Z,68.75
2024-02-03T16:39:17.964Z,68.79
2024-02-03T16:41:40.931Z,69.05
2024-02-03T16:44:04.149Z,68.92
2024-02-03T16:46:26.864Z,68.79
2024-02-03T16:48:49.858Z,69.01
2024-02-03T16:51:12.900Z,68.95
2024-02-03T16:53:35.637Z,68.95
2024-02-03T16:55:58.464Z,69.34
2024-02-03T16:58:21.138Z,69.31
2024-02-03T17:00:43.978Z,69.09
2024-02-03T17:03:09.864Z,69.43
2024-02-03T17:05:33.578Z,69.44
2024-02-03T17:07:56.717Z,69.65
2024-02-03T17:10:19.349Z,69.92
2024-02-03T17:12:42.076Z,69.78
2024-02-03T17:15:05.949Z,70.29
2024-02-03T17:17:28.829Z,70.47
2024-02-03T17:19:52.044Z,70.64
2024-02-03T17:22:15.122Z,71.03
2024-02-03T17:24:37.778Z,71.11
2024-02-03T17:27:00.853Z,71.12
2024-02-03T17:29:23.709Z,71.38
2024-02-03T17:31:46.806Z,71.29
2024-02-03T17:34:09.984Z,71.21
2024-02-03T17:36:33.208Z,71.37
2024-02-03T17:38:57.835Z,71.43
2024-02-03T17:41:20.857Z,71.07
2024-02-03T17:43:43.933Z,71.40
2024-02-03T17:46:07.155Z,71.18
2024-02-03T17:48:30.028Z,70.79
2024-02-03T17:50:52.832Z,70.58
2024-02-03T17:53:15.495Z,70.75
2024-02-03T17:55:38.352Z,70.54
2024-02-03T17:58:01.492Z,70.64
2024-02-03T18:00:24.943Z,70.89
2024-02-03T18:02:48.311Z,70.46
2024-02-03T18:05:11.169Z,70.33
2024-02-03T18:07:35.572Z,70.57
2024-02-03T18:09:59.174Z,70.53
2024-02-03T18:12:22.528Z,70.52
2024-02-03T18:14:45.517Z,70.59
2024-02-03T18:17:08.406Z,70.48
2024-02-03T18:19:31.551Z,70.35
2024-02-03T18:21:54.566Z,70.65
2024-02-03T18:24:18.021Z,70.93
2024-02-03T18:26:41.593Z,70.75
2024-02-03T18:29:04.500Z,70.79
2024-02-03T18:31:27.240Z,71.02
2024-02-03T18:33:50.081Z,71.08
2024-02-03T18:36:14.134Z,71.34
2024-02-03T18:38:37.567Z,71.58
2024-02-03T18:41:00.626Z,71.99
2024-02-03T18:43:23.514Z,72.36
2024-02-03T18:45:46.859Z,72.14
2024-02-03T18:48:13.701Z,72.76
2024-02-03T18:50:37.079Z,72.95
2024-02-03T18:53:00.349Z,73.37
2024-02-03T18:55:23.491Z,73.62
2024-02-03T18:57:46.251Z,73.51
2024-02-03T19:00:13.896Z,73.49
2024-02-03T19:02:36.948Z,73.57
2024-02-03T19:04:59.740Z,73.55
2024-02-03T19:07:22.952Z,73.52
2024-02-03T19:09:45.953Z,73.43
2024-02-03T19:12:10.882Z,73.18
2024-02-03T19:14:34.792Z,73.19
2024-02-03T19:16:57.535Z,72.93
2024-02-03T19:19:20.630Z,72.84
2024-02-03T19:21:43.980Z,72.77
2024-02-03T19:24:13.270Z,72.78
2024-02-03T19:26:36.876Z,72.32
2024-02-03T19:29:00.648Z,72.62
2024-02-03T19:31:23.687Z,72.63
2024-02-03T19:33:46.807Z,72.69
2024-02-03T19:36:10.588Z,72.79
2024-02-03T19:38:35.530Z,72.65
2024-02-03T19:40:58.158Z,72.53
2024-02-03T19:43:20.867Z,72.49
2024-02-03T19:45:43.783Z,72.48
2024-02-03T19:48:06.918Z,72.41
2024-02-03T19:50:30.089Z,72.25
2024-02-03T19:52:53.059Z,72.37
2024-02-03T19:55:16.227Z,72.14
2024-02-03T19:57:39.259Z,72.30
2024-02-03T20:00:02.074Z,72.28
2024-02-03T20:02:28.918Z,72.00
2024-02-03T20:04:51.995Z,72.01
2024-02-03T20:07:16.049Z,72.17
2024-02-03T20:09:40.732Z,72.19
2024-02-03T20:12:04.041Z,72.14
2024-02-03T20:14:27.191Z,72.27
2024-02-03T20:16:53.004Z,71.93
2024-02-03T20:19:16.338Z,72.03
2024-02-03T20:21:39.250Z,72.44
2024-02-03T20:24:02.290Z,72.40
2024-02-03T20:26:25.154Z,72.42
2024-02-03T20:28:47.848Z,72.21
2024-02-03T20:31:11.686Z,71.96
2024-02-03T20:33:34.716Z,71.81
2024-02-03T20:35:57.674Z,71.84
2024-02-03T20:38:20.663Z,72.07
2024-02-03T20:40:47.786Z,71.98
2024-02-03T20:43:14.677Z,71.94
2024-02-03T20:45:37.616Z,72.03
2024-02-03T20:48:00.539Z,72.12
2024-02-03T20:50:23.585Z,72.09
2024-02-03T20:52:46.337Z,72.29
2024-02-03T20:55:09.620Z,72.97
2024-02-03T20:57:32.747Z,72.78
2024-02-03T20:59:55.546Z,73.32
2024-02-03T21:02:18.527Z,73.51
2024-02-03T21:04:41.597Z,73.91
2024-02-03T21:07:09.200Z,74.10
2024-02-03T21:09:32.410Z,74.23
2024-02-03T21:11:55.302Z,74.22
2024-02-03T21:14:18.131Z,74.60
2024-02-03T21:16:41.041Z,74.74
2024-02-03T21:19:04.276Z,74.58
2024-02-03T21:21:38.722Z,74.73
2024-02-03T21:24:02.066Z,74.92
2024-02-03T21:26:24.996Z,75.29
2024-02-03T21:28:47.601Z,75.18
2024-02-03T21:31:10.489Z,75.48
2024-02-03T21:33:35.570Z,75.99
2024-02-03T21:35:58.312Z,76.05
2024-02-03T21:38:21.035Z,76.13
2024-02-03T21:40:46.443Z,76.55
2024-02-03T21:43:10.339Z,76.41
2024-02-03T21:45:33.269Z,76.67
2024-02-03T21:47:56.054Z,76.88
2024-02-03T21:50:18.888Z,76.88
2024-02-03T21:52:41.721Z,77.14
2024-02-03T21:55:04.926Z,77.42
2024-02-03T21:57:27.730Z,77.43
2024-02-03T21:59:50.696Z,77.24
2024-02-03T22:02:13.411Z,77.46
2024-02-03T22:04:36.199Z,77.57
2024-02-03T22:06:59.390Z,77.28
2024-02-03T22:09:22.387Z,77.52
2024-02-03T22:11:45.346Z,77.25
2024-02-03T22:14:08.028Z,77.02
2024-02-03T22:16:31.385Z,77.55
2024-02-03T22:18:54.048Z,77.98
2024-02-03T22:21:16.755Z,77.88
2024-02-03T22:23:39.678Z,78.31
2024-02-03T22:26:02.380Z,77.96
2024-02-03T22:28:25.154Z,77.77
2024-02-03T22:30:48.345Z,77.71
2024-02-03T22:33:11.237Z,77.46
2024-02-03T22:35:34.049Z,77.25
2024-02-03T22:37:57.084Z,77.39
2024-02-03T22:40:19.744Z,77.52
2024-02-03T22:42:42.543Z,77.76
2024-02-03T22:45:05.918Z,77.87
2024-02-03T22:47:28.477Z,77.61
2024-02-03T22:49:51.190Z,77.53
2024-02-03T22:52:13.897Z,77.71
2024-02-03T22:54:36.714Z,78.08
2024-02-03T22:56:59.677Z,78.07
2024-02-03T22:59:22.377Z,78.40
2024-02-03T23:01:45.644Z,78.48
2024-02-03T23:04:08.789Z,78.39
2024-02-03T23:06:32.520Z,78.52
2024-02-03T23:08:55.349Z,78.32
2024-02-03T23:11:18.924Z,78.37
2024-02-03T23:13:42.004Z,78.11
2024-02-03T23:16:06.062Z,78.00
2024-02-03T23:18:29.213Z,78.02
2024-02-03T23:20:52.087Z,78.03
2024-02-03T23:23:15.433Z,77.88
2024-02-03T23:25:38.272Z,77.65
2024-02-03T23:28:01.132Z,77.59
2024-02-03T23:30:27.756Z,77.30
2024-02-03T23:32:50.641Z,77.05
2024-02-03T23:35:13.475Z,76.61
2024-02-03T23:37:36.398Z,76.28
2024-02-03T23:39:59.232Z,76.00
2024-02-03T23:42:22.722Z,75.86
2024-02-03T23:44:45.624Z,75.70
2024-02-03T23:47:08.355Z,75.62
2024-02-03T23:49:31.354Z,75.67
2024-02-03T23:51:54.103Z,75.94
2024-02-03T23:54:17.474Z,75.99
2024-02-03T23:56:40.677Z,76.41
2024-02-03T23:59:04.698Z,76.59
